Time;durP1;ratioP1;P1;durP2;ratioP2;P2;SDS_P1;SDS_P2;PMS_P1;PMS_P2;Temp;Humidity;BMP_temperature;BMP_pressure;BME280_temperature;BME280_humidity;BME280_pressure;Samples;Min_cycle;Max_cycle;Signal;HPM_P1;HPM_P2
2023/12/28 00:01:12;;;;;;;8.35;3.00;;;;;;;;;;5113970;28;20024;-28
2023/12/28 00:03:37;;;;;;;9.23;3.15;;;;;;;;;;5114012;28;20069;-28
2023/12/28 00:06:02;;;;;;;6.93;3.23;;;;;;;;;;5114265;28;20065;-28
2023/12/28 00:08:27;;;;;;;5.68;3.20;;;;;;;;;;5114437;28;20746;-28
2023/12/28 00:10:52;;;;;;;12.43;3.28;;;;;;;;;;5114187;28;20481;-28
2023/12/28 00:13:18;;;;;;;5.17;3.23;;;;;;;;;;5113864;28;20444;-28
2023/12/28 00:15:43;;;;;;;12.00;3.05;;;;;;;;;;5113845;28;20254;-28
2023/12/28 00:18:08;;;;;;;9.85;3.22;;;;;;;;;;5114378;28;20023;-28
2023/12/28 00:20:33;;;;;;;7.20;3.27;;;;;;;;;;5113978;28;20023;-28
2023/12/28 00:22:59;;;;;;;9.38;3.38;;;;;;;;;;5113751;28;20254;-28
2023/12/28 00:25:24;;;;;;;7.22;3.20;;;;;;;;;;5113997;28;20008;-28
2023/12/28 00:27:49;;;;;;;8.17;2.93;;;;;;;;;;5114345;28;20023;-28
2023/12/28 00:30:16;;;;;;;9.30;3.10;;;;;;;;;;5113705;28;20308;-28
2023/12/28 00:32:44;;;;;;;28.42;14.43;;;;;;;;;;5114365;28;20269;-28
2023/12/28 00:35:09;;;;;;;8.68;4.40;;;;;;;;;;5113634;28;20016;-28
2023/12/28 00:37:34;;;;;;;8.07;3.63;;;;;;;;;;5116082;28;20037;-28
2023/12/28 00:39:59;;;;;;;6.73;3.00;;;;;;;;;;5117696;28;20023;-28
2023/12/28 00:42:24;;;;;;;10.33;3.17;;;;;;;;;;5117977;28;20730;-28
2023/12/28 00:44:49;;;;;;;7.47;3.50;;;;;;;;;;5117552;28;20268;-28
2023/12/28 00:47:15;;;;;;;8.23;3.40;;;;;;;;;;5117538;28;20031;-28
2023/12/28 00:49:40;;;;;;;8.43;3.05;;;;;;;;;;5117249;28;20500;-28
2023/12/28 00:52:05;;;;;;;10.77;3.20;;;;;;;;;;5117011;28;20020;-28
2023/12/28 00:54:30;;;;;;;8.32;3.25;;;;;;;;;;5116968;28;20265;-28
2023/12/28 00:56:55;;;;;;;9.13;3.13;;;;;;;;;;5116465;28;20041;-28
2023/12/28 00:59:21;;;;;;;6.57;2.93;;;;;;;;;;5116279;28;20285;-28
2023/12/28 01:01:46;;;;;;;8.70;2.90;;;;;;;;;;5116764;28;20270;-28
2023/12/28 01:04:11;;;;;;;7.37;2.93;;;;;;;;;;5116932;28;20325;-28
2023/12/28 01:06:36;;;;;;;11.50;2.70;;;;;;;;;;5117427;28;20242;-28
2023/12/28 01:09:01;;;;;;;7.25;2.70;;;;;;;;;;5117087;28;20023;-28
2023/12/28 01:11:27;;;;;;;4.72;2.65;;;;;;;;;;5117006;28;20084;-28
2023/12/28 01:13:52;;;;;;;9.93;2.73;;;;;;;;;;5117617;28;20027;-28
2023/12/28 01:16:17;;;;;;;8.67;2.73;;;;;;;;;;5116990;28;20264;-28
2023/12/28 01:18:42;;;;;;;11.18;2.92;;;;;;;;;;5116885;28;20269;-28
2023/12/28 01:21:08;;;;;;;8.93;2.72;;;;;;;;;;5117088;28;20020;-28
2023/12/28 01:23:33;;;;;;;11.00;2.90;;;;;;;;;;5117074;28;20016;-28
2023/12/28 01:25:59;;;;;;;10.88;2.88;;;;;;;;;;5117071;28;20019;-28
2023/12/28 01:28:24;;;;;;;5.60;2.75;;;;;;;;;;5116714;28;20016;-28
2023/12/28 01:30:49;;;;;;;8.77;2.60;;;;;;;;;;5116728;28;20068;-28
2023/12/28 01:33:14;;;;;;;6.25;2.60;;;;;;;;;;5117214;28;20755;-28
2023/12/28 01:35:40;;;;;;;9.00;2.80;;;;;;;;;;5116670;28;20379;-28
2023/12/28 01:38:05;;;;;;;8.35;2.80;;;;;;;;;;5116523;28;20356;-28
2023/12/28 01:40:31;;;;;;;4.87;2.30;;;;;;;;;;5116728;28;20408;-28
2023/12/28 01:42:56;;;;;;;9.87;2.70;;;;;;;;;;5117006;28;20261;-28
2023/12/28 01:45:21;;;;;;;9.30;2.75;;;;;;;;;;5116689;28;20631;-28
2023/12/28 01:47:47;;;;;;;8.43;2.47;;;;;;;;;;5116506;28;20023;-28
2023/12/28 01:50:12;;;;;;;4.70;2.40;;;;;;;;;;5115866;28;20042;-28
2023/12/28 01:52:37;;;;;;;8.70;3.33;;;;;;;;;;5116844;28;20094;-28
2023/12/28 01:55:03;;;;;;;7.28;2.40;;;;;;;;;;5116261;28;20024;-28
2023/12/28 01:57:29;;;;;;;10.23;2.80;;;;;;;;;;5116729;28;20015;-28
2023/12/28 01:59:54;;;;;;;6.55;2.53;;;;;;;;;;5116264;28;20036;-28
2023/12/28 02:02:20;;;;;;;8.77;2.70;;;;;;;;;;5116315;28;20019;-28
2023/12/28 02:04:46;;;;;;;7.75;2.78;;;;;;;;;;5116616;28;20016;-33
2023/12/28 02:07:12;;;;;;;6.95;2.92;;;;;;;;;;5116579;28;20107;-28
2023/12/28 02:09:38;;;;;;;6.10;2.70;;;;;;;;;;5116044;28;20493;-28
2023/12/28 02:12:03;;;;;;;10.77;3.40;;;;;;;;;;5116137;28;20035;-28
2023/12/28 02:14:28;;;;;;;11.15;3.05;;;;;;;;;;5116445;28;20250;-28
2023/12/28 02:17:00;;;;;;;7.17;3.00;;;;;;;;;;5115831;28;20076;-28
2023/12/28 02:19:32;;;;;;;8.68;2.63;;;;;;;;;;5116293;28;20708;-28
2023/12/28 02:21:59;;;;;;;7.40;2.53;;;;;;;;;;5115765;28;20083;-28
2023/12/28 02:24:24;;;;;;;6.13;2.70;;;;;;;;;;5115905;28;20485;-28
2023/12/28 02:26:49;;;;;;;8.00;2.87;;;;;;;;;;5115608;28;20011;-28
2023/12/28 02:29:14;;;;;;;5.95;2.60;;;;;;;;;;5116112;28;20246;-28
2023/12/28 02:31:53;;;;;;;8.17;2.67;;;;;;;;;;5097271;28;20378;-28
2023/12/28 02:34:23;;;;;;;8.70;3.15;;;;;;;;;;5116058;28;20249;-28
2023/12/28 02:36:48;;;;;;;7.13;2.50;;;;;;;;;;5115389;28;20054;-29
2023/12/28 02:39:14;;;;;;;7.60;2.63;;;;;;;;;;5115294;28;20023;-28
2023/12/28 02:41:40;;;;;;;8.00;2.60;;;;;;;;;;5115254;28;20806;-28
2023/12/28 02:44:05;;;;;;;7.43;2.70;;;;;;;;;;5115821;28;20020;-28
2023/12/28 02:46:30;;;;;;;11.60;2.50;;;;;;;;;;5115477;28;20110;-28
2023/12/28 02:48:57;;;;;;;7.27;2.53;;;;;;;;;;5115721;28;20283;-28
2023/12/28 02:51:22;;;;;;;11.05;2.78;;;;;;;;;;5115037;28;20265;-28
2023/12/28 02:53:47;;;;;;;7.80;2.60;;;;;;;;;;5116190;28;20149;-28
2023/12/28 02:56:12;;;;;;;8.67;2.73;;;;;;;;;;5115075;28;20023;-28
2023/12/28 02:58:38;;;;;;;5.90;2.30;;;;;;;;;;5114994;28;20257;-28
2023/12/28 03:01:03;;;;;;;7.63;2.40;;;;;;;;;;5113778;28;20746;-28
2023/12/28 03:03:28;;;;;;;4.40;2.20;;;;;;;;;;5114892;28;20253;-28
2023/12/28 03:05:53;;;;;;;6.77;2.33;;;;;;;;;;5115319;28;20051;-28
2023/12/28 03:08:18;;;;;;;6.07;2.40;;;;;;;;;;5114813;28;20314;-28
2023/12/28 03:10:44;;;;;;;5.90;2.50;;;;;;;;;;5114719;28;20285;-28
2023/12/28 03:13:09;;;;;;;5.95;2.30;;;;;;;;;;5114911;28;20257;-28
2023/12/28 03:15:34;;;;;;;7.90;2.80;;;;;;;;;;5115219;28;20103;-29
2023/12/28 03:17:59;;;;;;;10.20;2.20;;;;;;;;;;5114627;28;20320;-28
2023/12/28 03:20:24;;;;;;;9.50;2.65;;;;;;;;;;5114461;28;20305;-28
2023/12/28 03:22:50;;;;;;;5.40;2.33;;;;;;;;;;5114435;28;20016;-28
2023/12/28 03:25:15;;;;;;;11.13;2.57;;;;;;;;;;5114384;28;20293;-28
2023/12/28 03:27:40;;;;;;;7.43;2.50;;;;;;;;;;5114885;28;20246;-28
2023/12/28 03:30:05;;;;;;;7.20;2.43;;;;;;;;;;5114585;28;20285;-28
2023/12/28 03:32:31;;;;;;;11.32;2.50;;;;;;;;;;5114283;28;20261;-28
2023/12/28 03:34:56;;;;;;;8.43;2.30;;;;;;;;;;5095923;28;20031;-26
2023/12/28 03:37:21;;;;;;;7.07;2.37;;;;;;;;;;5114816;28;20261;-26
2023/12/28 03:39:46;;;;;;;6.75;2.22;;;;;;;;;;5114162;28;20270;-26
2023/12/28 03:42:12;;;;;;;11.40;2.45;;;;;;;;;;5114486;28;20073;-26
2023/12/28 03:44:37;;;;;;;4.45;1.98;;;;;;;;;;5114696;28;20022;-26
2023/12/28 03:47:02;;;;;;;8.07;2.30;;;;;;;;;;5114116;28;20015;-26
2023/12/28 03:49:27;;;;;;;12.70;2.90;;;;;;;;;;5114402;28;20257;-27
2023/12/28 03:51:52;;;;;;;7.17;2.37;;;;;;;;;;5113997;28;20458;-26
2023/12/28 03:54:18;;;;;;;9.37;2.87;;;;;;;;;;5113999;28;20248;-26
2023/12/28 03:56:43;;;;;;;8.30;2.30;;;;;;;;;;5114264;28;20254;-26
2023/12/28 03:59:09;;;;;;;9.17;2.77;;;;;;;;;;5113825;28;20035;-27
2023/12/28 04:01:34;;;;;;;6.35;2.28;;;;;;;;;;5113843;28;20277;-27
2023/12/28 04:03:59;;;;;;;9.82;2.72;;;;;;;;;;5113976;28;20012;-26
2023/12/28 04:06:24;;;;;;;8.82;2.30;;;;;;;;;;5113869;28;20047;-26
2023/12/28 04:08:49;;;;;;;8.70;2.10;;;;;;;;;;5113877;28;20020;-26
2023/12/28 04:11:15;;;;;;;9.67;2.73;;;;;;;;;;5113988;28;20241;-26
2023/12/28 04:13:40;;;;;;;10.93;2.60;;;;;;;;;;5114090;28;20269;-27
2023/12/28 04:16:05;;;;;;;5.40;2.40;;;;;;;;;;5113781;28;20485;-26
2023/12/28 04:18:31;;;;;;;9.18;2.67;;;;;;;;;;5113627;28;20253;-27
2023/12/28 04:20:56;;;;;;;10.15;2.40;;;;;;;;;;5113747;28;20060;-27
2023/12/28 04:23:22;;;;;;;7.10;2.40;;;;;;;;;;5113730;28;20352;-26
2023/12/28 04:25:47;;;;;;;6.60;2.03;;;;;;;;;;5114268;28;20249;-26
2023/12/28 04:28:12;;;;;;;11.32;2.22;;;;;;;;;;5113621;28;20024;-27
2023/12/28 04:30:37;;;;;;;8.65;2.20;;;;;;;;;;5114225;28;20023;-27
2023/12/28 04:33:03;;;;;;;4.30;1.97;;;;;;;;;;5113637;28;20080;-27
2023/12/28 04:35:28;;;;;;;8.98;2.22;;;;;;;;;;5113542;28;20254;-26
2023/12/28 04:37:53;;;;;;;11.07;2.38;;;;;;;;;;5113638;28;20027;-26
2023/12/28 04:40:19;;;;;;;9.02;2.42;;;;;;;;;;5113150;28;20103;-27
2023/12/28 04:42:44;;;;;;;10.90;2.30;;;;;;;;;;5113417;28;20189;-26
2023/12/28 04:45:12;;;;;;;14.32;2.40;;;;;;;;;;5114114;28;20024;-27
2023/12/28 04:47:37;;;;;;;9.07;2.10;;;;;;;;;;5114042;28;20385;-27
2023/12/28 04:50:03;;;;;;;9.47;2.67;;;;;;;;;;5113429;28;20016;-27
2023/12/28 04:52:28;;;;;;;13.00;2.00;;;;;;;;;;5114265;28;20253;-27
2023/12/28 04:54:53;;;;;;;14.68;2.70;;;;;;;;;;5114024;28;20023;-27
2023/12/28 04:57:19;;;;;;;11.52;2.17;;;;;;;;;;5113941;28;20069;-27
2023/12/28 04:59:44;;;;;;;10.60;2.33;;;;;;;;;;5113183;28;20040;-27
2023/12/28 05:02:10;;;;;;;12.13;2.30;;;;;;;;;;5113638;28;20264;-27
2023/12/28 05:04:38;;;;;;;10.93;2.25;;;;;;;;;;5113871;28;20024;-27
2023/12/28 05:07:04;;;;;;;15.00;2.55;;;;;;;;;;5113591;28;20087;-27
2023/12/28 05:09:29;;;;;;;13.10;2.10;;;;;;;;;;5113846;28;20181;-27
2023/12/28 05:11:54;;;;;;;11.95;1.85;;;;;;;;;;5113473;28;20011;-27
2023/12/28 05:14:19;;;;;;;14.23;2.63;;;;;;;;;;5113312;28;20020;-27
2023/12/28 05:16:44;;;;;;;11.73;2.60;;;;;;;;;;5113169;28;20256;-27
2023/12/28 05:19:10;;;;;;;18.38;2.55;;;;;;;;;;5113738;28;20020;-27
2023/12/28 05:21:35;;;;;;;12.77;2.55;;;;;;;;;;5113070;28;20020;-27
2023/12/28 05:24:00;;;;;;;10.40;2.63;;;;;;;;;;5115069;28;20022;-27
2023/12/28 05:26:26;;;;;;;12.47;2.27;;;;;;;;;;5116800;28;20743;-27
2023/12/28 05:28:51;;;;;;;11.27;2.15;;;;;;;;;;5116774;28;20253;-26
2023/12/28 05:31:16;;;;;;;7.18;1.67;;;;;;;;;;5116699;28;20019;-27
2023/12/28 05:33:41;;;;;;;16.03;2.00;;;;;;;;;;5117253;28;20068;-27
2023/12/28 05:36:06;;;;;;;7.60;2.00;;;;;;;;;;5116622;28;20253;-27
2023/12/28 05:38:32;;;;;;;14.60;2.50;;;;;;;;;;5116833;28;20732;-26
2023/12/28 05:40:57;;;;;;;12.57;2.17;;;;;;;;;;5117008;28;20300;-26
2023/12/28 05:43:22;;;;;;;13.07;2.42;;;;;;;;;;5116441;28;20031;-27
2023/12/28 05:45:48;;;;;;;16.65;2.70;;;;;;;;;;5098125;28;20019;-27
2023/12/28 05:48:13;;;;;;;10.57;2.20;;;;;;;;;;5116408;28;20102;-27
2023/12/28 05:50:38;;;;;;;10.57;2.37;;;;;;;;;;5116294;28;20020;-27
2023/12/28 05:53:03;;;;;;;12.07;2.13;;;;;;;;;;5116284;28;20252;-27
2023/12/28 05:55:28;;;;;;;16.90;2.15;;;;;;;;;;5116222;28;20261;-27
2023/12/28 05:57:53;;;;;;;14.40;2.57;;;;;;;;;;5116767;28;20015;-27
2023/12/28 06:00:19;;;;;;;17.93;2.37;;;;;;;;;;5115895;28;20717;-27
2023/12/28 06:02:46;;;;;;;11.35;2.10;;;;;;;;;;5116080;28;20242;-27
2023/12/28 06:05:11;;;;;;;11.02;2.33;;;;;;;;;;5116025;28;20019;-27
2023/12/28 06:07:36;;;;;;;9.80;2.07;;;;;;;;;;5116558;28;20016;-27
2023/12/28 06:10:02;;;;;;;12.70;2.53;;;;;;;;;;5115977;28;20248;-27
2023/12/28 06:12:27;;;;;;;16.40;2.65;;;;;;;;;;5116056;28;20020;-27
2023/12/28 06:14:52;;;;;;;10.23;2.30;;;;;;;;;;5116435;28;20061;-27
2023/12/28 06:17:18;;;;;;;15.63;2.33;;;;;;;;;;5115760;28;20727;-27
2023/12/28 06:19:43;;;;;;;13.02;2.67;;;;;;;;;;5115528;28;20748;-27
2023/12/28 06:22:08;;;;;;;15.67;2.60;;;;;;;;;;5115225;28;20095;-27
2023/12/28 06:24:37;;;;;;;17.43;2.90;;;;;;;;;;5115216;28;20258;-27
2023/12/28 06:27:02;;;;;;;11.48;1.88;;;;;;;;;;5115107;28;20352;-27
2023/12/28 06:29:27;;;;;;;11.32;1.92;;;;;;;;;;5114349;28;20091;-27
2023/12/28 06:31:52;;;;;;;20.00;2.37;;;;;;;;;;5115050;28;20019;-27
2023/12/28 06:34:17;;;;;;;12.20;2.37;;;;;;;;;;5115201;28;20619;-27
2023/12/28 06:36:43;;;;;;;17.33;2.73;;;;;;;;;;5097145;28;20273;-27
2023/12/28 06:39:08;;;;;;;14.00;2.35;;;;;;;;;;5115291;28;20382;-27
2023/12/28 06:41:33;;;;;;;12.40;2.57;;;;;;;;;;5115312;28;20023;-27
2023/12/28 06:43:58;;;;;;;19.37;2.80;;;;;;;;;;5115310;28;20740;-27
2023/12/28 06:46:24;;;;;;;15.53;2.50;;;;;;;;;;5115715;28;20277;-27
2023/12/28 06:48:49;;;;;;;18.58;2.53;;;;;;;;;;5115464;28;20365;-27
2023/12/28 06:51:18;;;;;;;20.23;2.77;;;;;;;;;;5115128;28;20044;-27
2023/12/28 06:53:43;;;;;;;13.75;2.10;;;;;;;;;;5115144;28;20392;-27
2023/12/28 06:56:09;;;;;;;16.17;2.33;;;;;;;;;;5115083;28;20056;-26
2023/12/28 06:58:34;;;;;;;17.95;2.50;;;;;;;;;;5115032;28;20072;-27
2023/12/28 07:00:59;;;;;;;17.67;2.63;;;;;;;;;;5096509;28;20483;-27
2023/12/28 07:03:25;;;;;;;23.60;2.73;;;;;;;;;;5114849;28;20370;-27
2023/12/28 07:05:51;;;;;;;16.65;2.50;;;;;;;;;;5115111;28;20257;-27
2023/12/28 07:08:16;;;;;;;17.30;2.95;;;;;;;;;;5115040;28;20110;-26
2023/12/28 07:10:41;;;;;;;18.13;2.47;;;;;;;;;;5114704;28;20023;-26
2023/12/28 07:13:06;;;;;;;17.35;2.53;;;;;;;;;;5114665;28;20301;-27
2023/12/28 07:15:31;;;;;;;19.17;2.40;;;;;;;;;;5114930;28;20422;-27
2023/12/28 07:17:57;;;;;;;20.63;2.70;;;;;;;;;;5096360;28;20257;-27
2023/12/28 07:20:22;;;;;;;13.17;2.50;;;;;;;;;;5114759;28;20114;-27
2023/12/28 07:22:47;;;;;;;16.37;2.50;;;;;;;;;;5114541;28;20242;-27
2023/12/28 07:25:12;;;;;;;24.37;2.53;;;;;;;;;;5114435;28;20265;-27
2023/12/28 07:27:37;;;;;;;20.37;3.37;;;;;;;;;;5115005;28;20280;-27
2023/12/28 07:30:03;;;;;;;19.45;3.00;;;;;;;;;;5114313;28;20249;-27
2023/12/28 07:32:28;;;;;;;20.88;3.72;;;;;;;;;;5114216;28;20024;-27
2023/12/28 07:34:53;;;;;;;15.88;2.80;;;;;;;;;;5114307;28;20023;-27
2023/12/28 07:37:19;;;;;;;18.40;3.00;;;;;;;;;;5114621;28;20042;-27
2023/12/28 07:39:44;;;;;;;14.67;2.43;;;;;;;;;;5114153;28;20463;-27
2023/12/28 07:42:09;;;;;;;14.00;2.78;;;;;;;;;;5114742;28;20256;-27
2023/12/28 07:44:35;;;;;;;17.73;2.50;;;;;;;;;;5114457;28;20019;-27
2023/12/28 07:47:00;;;;;;;24.83;2.80;;;;;;;;;;5113862;28;20011;-27
2023/12/28 07:49:25;;;;;;;20.17;2.80;;;;;;;;;;5114079;28;20015;-28
2023/12/28 07:51:50;;;;;;;21.53;2.90;;;;;;;;;;5114019;28;20277;-26
2023/12/28 07:54:15;;;;;;;22.80;3.00;;;;;;;;;;5114531;28;20303;-27
2023/12/28 07:56:41;;;;;;;18.13;2.77;;;;;;;;;;5113961;28;20673;-27
2023/12/28 07:59:09;;;;;;;28.33;3.03;;;;;;;;;;5113895;28;20273;-27
2023/12/28 08:01:34;;;;;;;13.95;2.95;;;;;;;;;;5113820;28;20038;-27
2023/12/28 08:03:59;;;;;;;18.03;2.80;;;;;;;;;;5113792;28;20016;-27
2023/12/28 08:06:25;;;;;;;18.52;2.70;;;;;;;;;;5114128;28;20250;-27
2023/12/28 08:08:50;;;;;;;15.20;2.55;;;;;;;;;;5113911;28;20073;-27
2023/12/28 08:11:15;;;;;;;22.30;2.40;;;;;;;;;;5114249;28;20023;-27
2023/12/28 08:13:40;;;;;;;16.13;2.63;;;;;;;;;;5113445;28;20293;-27
2023/12/28 08:16:06;;;;;;;17.08;2.80;;;;;;;;;;5113188;28;20265;-27
2023/12/28 08:18:31;;;;;;;20.23;2.78;;;;;;;;;;5113287;28;20030;-27
2023/12/28 08:20:56;;;;;;;17.02;2.35;;;;;;;;;;5113348;28;20103;-26
2023/12/28 08:23:21;;;;;;;16.38;2.90;;;;;;;;;;5113508;28;20070;-27
2023/12/28 08:25:46;;;;;;;11.53;2.30;;;;;;;;;;5113256;28;20099;-27
2023/12/28 08:28:12;;;;;;;19.17;2.80;;;;;;;;;;5113572;28;20307;-27
2023/12/28 08:30:37;;;;;;;20.90;3.10;;;;;;;;;;5113613;28;20269;-27
2023/12/28 08:33:02;;;;;;;16.13;2.90;;;;;;;;;;5114123;28;20264;-27
2023/12/28 08:35:27;;;;;;;18.45;2.60;;;;;;;;;;5113470;28;20265;-28
2023/12/28 08:37:52;;;;;;;13.83;2.60;;;;;;;;;;5114154;28;20019;-28
2023/12/28 08:40:18;;;;;;;19.25;3.20;;;;;;;;;;5113798;28;20628;-27
2023/12/28 08:42:43;;;;;;;19.38;2.63;;;;;;;;;;5113864;28;20463;-29
2023/12/28 08:45:09;;;;;;;17.13;2.50;;;;;;;;;;5113766;28;20012;-27
2023/12/28 08:47:34;;;;;;;16.35;2.40;;;;;;;;;;5095180;28;20074;-27
2023/12/28 08:49:59;;;;;;;15.70;2.70;;;;;;;;;;5114118;28;20043;-28
2023/12/28 08:52:24;;;;;;;17.95;2.38;;;;;;;;;;5114050;28;20712;-27
2023/12/28 08:54:49;;;;;;;20.38;2.38;;;;;;;;;;5113490;28;20148;-27
2023/12/28 08:57:15;;;;;;;17.80;2.50;;;;;;;;;;5113436;28;20023;-28
2023/12/28 08:59:40;;;;;;;17.47;2.50;;;;;;;;;;5115695;28;20043;-29
2023/12/28 09:02:07;;;;;;;14.67;2.67;;;;;;;;;;5117875;28;20269;-29
2023/12/28 09:04:32;;;;;;;17.20;2.35;;;;;;;;;;5117503;28;20308;-29
2023/12/28 09:06:57;;;;;;;17.88;2.67;;;;;;;;;;5117792;28;20043;-28
2023/12/28 09:09:22;;;;;;;15.03;2.73;;;;;;;;;;5117149;28;20019;-28
2023/12/28 09:11:47;;;;;;;17.43;2.80;;;;;;;;;;5117249;28;20261;-28
2023/12/28 09:14:13;;;;;;;24.40;2.80;;;;;;;;;;5116985;28;20276;-28
2023/12/28 09:16:39;;;;;;;22.60;2.97;;;;;;;;;;5117288;28;20019;-28
2023/12/28 09:19:04;;;;;;;20.10;2.95;;;;;;;;;;5117270;28;20265;-28
2023/12/28 09:21:29;;;;;;;18.33;2.40;;;;;;;;;;5116859;28;20024;-28
2023/12/28 09:23:54;;;;;;;18.90;2.67;;;;;;;;;;5117210;28;20719;-27
2023/12/28 09:26:19;;;;;;;15.95;2.20;;;;;;;;;;5117419;28;20277;-28
2023/12/28 09:28:45;;;;;;;15.83;2.43;;;;;;;;;;5116786;28;20047;-28
2023/12/28 09:31:10;;;;;;;20.88;3.13;;;;;;;;;;5116810;28;20633;-27
2023/12/28 09:33:35;;;;;;;17.55;2.60;;;;;;;;;;5116761;28;20019;-27
2023/12/28 09:36:02;;;;;;;21.97;3.10;;;;;;;;;;5116626;28;20498;-27
2023/12/28 09:38:28;;;;;;;16.70;2.80;;;;;;;;;;5117159;28;20329;-28
2023/12/28 09:40:54;;;;;;;30.63;4.00;;;;;;;;;;5116740;28;20103;-27
2023/12/28 09:43:26;;;;;;;23.65;3.20;;;;;;;;;;5116481;28;20012;-27
2023/12/28 09:45:52;;;;;;;18.73;2.80;;;;;;;;;;5116556;28;20481;-27
2023/12/28 09:48:18;;;;;;;17.80;3.10;;;;;;;;;;5098201;28;20023;-27
2023/12/28 09:50:50;;;;;;;18.40;2.65;;;;;;;;;;5098080;28;20019;-27
2023/12/28 09:53:16;;;;;;;20.88;2.53;;;;;;;;;;5116668;28;20132;-27
2023/12/28 09:55:42;;;;;;;18.83;3.17;;;;;;;;;;5116807;28;20128;-28
2023/12/28 09:58:07;;;;;;;26.17;2.85;;;;;;;;;;5116554;28;20568;-28
2023/12/28 10:00:32;;;;;;;22.30;3.53;;;;;;;;;;5116218;28;20114;-27
2023/12/28 10:02:57;;;;;;;20.20;2.67;;;;;;;;;;5116196;28;20459;-27
2023/12/28 10:05:22;;;;;;;19.97;2.93;;;;;;;;;;5116088;28;20020;-27
2023/12/28 10:07:48;;;;;;;19.93;2.60;;;;;;;;;;5116564;28;20398;-28
2023/12/28 10:10:14;;;;;;;19.25;2.88;;;;;;;;;;5115994;28;20261;-28
2023/12/28 10:12:39;;;;;;;17.48;2.72;;;;;;;;;;5116134;28;20479;-28
2023/12/28 10:15:05;;;;;;;19.30;2.95;;;;;;;;;;5116450;28;20055;-27
2023/12/28 10:17:32;;;;;;;22.17;3.03;;;;;;;;;;5115503;28;20043;-27
2023/12/28 10:20:03;;;;;;;20.10;2.30;;;;;;;;;;5115890;28;20039;-27
2023/12/28 10:22:29;;;;;;;22.67;2.75;;;;;;;;;;5115655;28;20012;-27
2023/12/28 10:24:54;;;;;;;13.10;2.33;;;;;;;;;;5115403;28;20355;-27
2023/12/28 10:27:19;;;;;;;15.23;2.72;;;;;;;;;;5115474;28;20020;-27
2023/12/28 10:29:44;;;;;;;14.13;2.43;;;;;;;;;;5115615;28;20023;-27
2023/12/28 10:32:10;;;;;;;19.47;2.73;;;;;;;;;;5115575;28;20258;-27
2023/12/28 10:34:35;;;;;;;18.23;2.90;;;;;;;;;;5116082;28;20252;-27
2023/12/28 10:37:01;;;;;;;18.10;2.80;;;;;;;;;;5115324;28;20654;-27
2023/12/28 10:39:29;;;;;;;18.48;2.67;;;;;;;;;;5115373;28;20310;-27
2023/12/28 10:41:55;;;;;;;20.38;2.83;;;;;;;;;;5115280;28;20020;-27
2023/12/28 10:44:22;;;;;;;17.02;2.80;;;;;;;;;;5115486;28;20113;-34
2023/12/28 10:46:51;;;;;;;21.98;2.88;;;;;;;;;;5115897;28;20047;-27
2023/12/28 10:49:16;;;;;;;15.82;2.50;;;;;;;;;;5115374;28;20016;-28
2023/12/28 10:51:48;;;;;;;19.63;3.00;;;;;;;;;;5115719;28;20030;-28
2023/12/28 10:54:31;;;;;;;18.20;3.08;;;;;;;;;;5115127;28;20462;-27
2023/12/28 10:56:56;;;;;;;;;;;;;;;;;;5115346;28;20044;-27
2023/12/28 10:59:41;;;;;;;12.43;2.20;;;;;;;;;;5114798;28;19970;-28
2023/12/28 11:02:06;;;;;;;18.50;2.70;;;;;;;;;;5115209;28;20435;-27
2023/12/28 11:04:41;;;;;;;16.95;2.63;;;;;;;;;;5114888;28;20051;-28
2023/12/28 11:07:06;;;;;;;24.02;3.75;;;;;;;;;;5115133;28;20021;-28
2023/12/28 11:09:32;;;;;;;20.80;2.85;;;;;;;;;;5114902;28;20091;-28
2023/12/28 11:12:00;;;;;;;14.43;2.42;;;;;;;;;;5114995;28;20019;-28
2023/12/28 11:14:26;;;;;;;30.17;3.38;;;;;;;;;;5114700;28;20423;-28
2023/12/28 11:16:52;;;;;;;23.48;2.95;;;;;;;;;;5114767;28;20385;-28
2023/12/28 11:19:18;;;;;;;19.67;3.60;;;;;;;;;;5114684;28;20012;-28
2023/12/28 11:21:44;;;;;;;16.65;2.63;;;;;;;;;;5113742;28;20012;-28
2023/12/28 11:24:09;;;;;;;20.85;3.25;;;;;;;;;;5114503;28;20011;-28
2023/12/28 11:26:34;;;;;;;15.77;2.60;;;;;;;;;;5114540;28;20375;-29
2023/12/28 11:29:03;;;;;;;22.60;3.33;;;;;;;;;;5114477;28;20393;-28
2023/12/28 11:31:32;;;;;;;21.33;3.42;;;;;;;;;;5112600;28;20032;-28
2023/12/28 11:33:57;;;;;;;17.90;2.75;;;;;;;;;;5114689;28;20047;-29
2023/12/28 11:36:31;;;;;;;17.88;3.25;;;;;;;;;;5114321;28;20086;-28
2023/12/28 11:38:58;;;;;;;21.10;3.10;;;;;;;;;;5114533;28;20466;-28
2023/12/28 11:41:24;;;;;;;19.27;2.97;;;;;;;;;;5114410;28;20016;-28
2023/12/28 11:43:55;;;;;;;21.88;3.15;;;;;;;;;;5114296;28;20348;-28
2023/12/28 11:46:21;;;;;;;20.88;2.95;;;;;;;;;;5114432;28;20463;-28
2023/12/28 11:48:47;;;;;;;17.25;2.72;;;;;;;;;;5114328;28;20388;-28
2023/12/28 11:51:12;;;;;;;18.42;2.60;;;;;;;;;;5113922;28;20076;-28
2023/12/28 11:53:38;;;;;;;23.57;3.10;;;;;;;;;;5114070;28;20459;-28
2023/12/28 11:56:04;;;;;;;19.55;2.75;;;;;;;;;;5114422;28;20326;-28
2023/12/28 11:58:30;;;;;;;21.02;2.75;;;;;;;;;;5114547;28;20034;-28
2023/12/28 12:00:55;;;;;;;19.27;2.65;;;;;;;;;;5113821;28;20422;-28
2023/12/28 12:03:20;;;;;;;15.63;2.43;;;;;;;;;;5113989;28;20374;-28
2023/12/28 12:05:45;;;;;;;20.10;3.33;;;;;;;;;;5114005;28;20245;-29
2023/12/28 12:08:13;;;;;;;19.13;3.10;;;;;;;;;;5114545;28;20290;-28
2023/12/28 12:10:39;;;;;;;22.92;3.25;;;;;;;;;;5113749;28;20023;-28
2023/12/28 12:13:04;;;;;;;25.48;3.35;;;;;;;;;;5113818;28;20458;-28
2023/12/28 12:15:30;;;;;;;25.92;3.13;;;;;;;;;;5114119;28;20019;-29
2023/12/28 12:17:55;;;;;;;24.50;3.13;;;;;;;;;;5114307;28;20047;-28
2023/12/28 12:20:21;;;;;;;26.25;3.33;;;;;;;;;;5095481;28;20024;-28
2023/12/28 12:22:46;;;;;;;18.38;3.63;;;;;;;;;;5113763;28;20012;-28
2023/12/28 12:25:11;;;;;;;28.58;3.35;;;;;;;;;;5113651;28;20027;-27
2023/12/28 12:27:38;;;;;;;27.97;3.53;;;;;;;;;;5113672;28;20024;-26
2023/12/28 12:30:03;;;;;;;18.08;2.85;;;;;;;;;;5113513;28;20258;-28
2023/12/28 12:32:29;;;;;;;14.52;2.65;;;;;;;;;;5114767;28;20027;-26
2023/12/28 12:34:54;;;;;;;26.02;3.30;;;;;;;;;;5117808;28;20440;-29
2023/12/28 12:37:19;;;;;;;22.83;3.25;;;;;;;;;;5118024;28;20016;-29
2023/12/28 12:39:45;;;;;;;17.67;2.58;;;;;;;;;;5117600;28;20024;-26
2023/12/28 12:42:13;;;;;;;22.83;3.80;;;;;;;;;;5118228;28;20060;-26
2023/12/28 12:44:39;;;;;;;26.63;3.15;;;;;;;;;;5117574;28;20011;-26
2023/12/28 12:47:04;;;;;;;22.13;2.95;;;;;;;;;;5117626;28;20562;-26
2023/12/28 12:49:30;;;;;;;20.00;3.75;;;;;;;;;;5118014;28;20061;-27
2023/12/28 12:51:56;;;;;;;25.50;3.80;;;;;;;;;;5117596;28;20020;-27
2023/12/28 12:54:21;;;;;;;27.33;2.97;;;;;;;;;;5117693;28;20383;-27
2023/12/28 12:56:47;;;;;;;22.60;3.03;;;;;;;;;;5117320;28;20298;-27
2023/12/28 12:59:16;;;;;;;18.15;2.60;;;;;;;;;;5117621;28;20023;-27
2023/12/28 13:01:41;;;;;;;16.92;2.80;;;;;;;;;;5117554;28;20047;-27
2023/12/28 13:04:06;;;;;;;20.45;2.55;;;;;;;;;;5117179;28;20382;-27
2023/12/28 13:06:32;;;;;;;13.80;2.53;;;;;;;;;;5117193;28;20085;-27
2023/12/28 13:08:57;;;;;;;17.43;2.80;;;;;;;;;;5117766;28;20257;-26
2023/12/28 13:11:26;;;;;;;19.07;3.47;;;;;;;;;;5117084;28;20338;-27
2023/12/28 13:13:51;;;;;;;20.45;2.50;;;;;;;;;;5117648;28;20031;-27
2023/12/28 13:16:16;;;;;;;16.80;2.88;;;;;;;;;;5116963;28;20019;-27
2023/12/28 13:18:41;;;;;;;25.37;3.80;;;;;;;;;;5117043;28;20028;-26
2023/12/28 13:21:06;;;;;;;26.37;3.50;;;;;;;;;;5116726;28;20273;-27
2023/12/28 13:23:31;;;;;;;18.77;2.67;;;;;;;;;;5116845;28;20297;-27
2023/12/28 13:25:57;;;;;;;25.30;3.37;;;;;;;;;;5117610;28;20023;-27
2023/12/28 13:28:22;;;;;;;20.23;2.80;;;;;;;;;;5116809;28;20508;-27
2023/12/28 13:30:47;;;;;;;17.87;2.60;;;;;;;;;;5098421;28;20258;-27
2023/12/28 13:33:12;;;;;;;18.02;2.60;;;;;;;;;;5117210;28;20257;-27
2023/12/28 13:35:37;;;;;;;16.97;2.60;;;;;;;;;;5116717;28;20016;-27
2023/12/28 13:38:02;;;;;;;18.50;3.57;;;;;;;;;;5116589;28;20095;-27
2023/12/28 13:40:28;;;;;;;20.67;3.10;;;;;;;;;;5116701;28;20281;-26
2023/12/28 13:42:53;;;;;;;16.20;2.70;;;;;;;;;;5116691;28;20398;-26
2023/12/28 13:45:18;;;;;;;16.00;2.40;;;;;;;;;;5115568;28;20027;-26
2023/12/28 13:47:44;;;;;;;16.40;2.30;;;;;;;;;;5116734;28;20020;-32
2023/12/28 13:50:09;;;;;;;18.70;2.87;;;;;;;;;;5116494;28;20022;-27
2023/12/28 13:52:34;;;;;;;25.92;2.85;;;;;;;;;;5116262;28;20362;-26
2023/12/28 13:55:00;;;;;;;24.40;3.30;;;;;;;;;;5116431;28;20020;-26
2023/12/28 13:57:25;;;;;;;20.67;2.80;;;;;;;;;;5116330;28;20273;-26
2023/12/28 13:59:50;;;;;;;21.80;3.03;;;;;;;;;;5115830;28;20379;-26
2023/12/28 14:02:15;;;;;;;19.53;3.03;;;;;;;;;;5116114;28;20375;-26
2023/12/28 14:04:40;;;;;;;22.58;3.15;;;;;;;;;;5115996;28;20281;-27
2023/12/28 14:07:06;;;;;;;20.97;3.53;;;;;;;;;;5115963;28;20095;-27
2023/12/28 14:09:32;;;;;;;20.43;3.10;;;;;;;;;;5116524;28;20026;-27
2023/12/28 14:11:58;;;;;;;22.85;3.35;;;;;;;;;;5116060;28;20250;-26
2023/12/28 14:14:23;;;;;;;23.70;3.27;;;;;;;;;;5116408;28;20019;-27
2023/12/28 14:16:48;;;;;;;27.03;3.37;;;;;;;;;;5115740;28;20254;-27
2023/12/28 14:19:13;;;;;;;18.55;3.22;;;;;;;;;;5116245;28;20268;-27
2023/12/28 14:21:39;;;;;;;17.47;2.80;;;;;;;;;;5115700;28;20370;-27
2023/12/28 14:24:05;;;;;;;32.30;3.38;;;;;;;;;;5115707;28;20265;-27